sensor_id;sensor_type;location;lat;lon;timestamp;P1;durP1;ratioP1;P2;durP2;ratioP2
77018;SDS011;66044;53.142;17.962;2023-08-24T00:00:43;8.90;;;2.50;;
77018;SDS011;66044;53.142;17.962;2023-08-24T00:03:30;7.80;;;2.40;;
77018;SDS011;66044;53.142;17.962;2023-08-24T00:05:56;5.80;;;2.40;;
77018;SDS011;66044;53.142;17.962;2023-08-24T00:08:22;8.70;;;2.30;;
77018;SDS011;66044;53.142;17.962;2023-08-24T00:10:49;5.80;;;2.30;;
77018;SDS011;66044;53.142;17.962;2023-08-24T00:13:15;9.10;;;2.20;;
77018;SDS011;66044;53.142;17.962;2023-08-24T00:15:42;6.30;;;2.20;;
77018;SDS011;66044;53.142;17.962;2023-08-24T00:18:08;6.80;;;1.80;;
77018;SDS011;66044;53.142;17.962;2023-08-24T00:20:35;8.80;;;2.40;;
77018;SDS011;66044;53.142;17.962;2023-08-24T00:23:02;5.40;;;1.80;;
77018;SDS011;66044;53.142;17.962;2023-08-24T00:25:29;7.90;;;2.10;;
77018;SDS011;66044;53.142;17.962;2023-08-24T00:27:56;6.30;;;2.40;;
77018;SDS011;66044;53.142;17.962;2023-08-24T00:30:23;6.80;;;2.00;;
77018;SDS011;66044;53.142;17.962;2023-08-24T00:32:49;5.80;;;1.80;;
77018;SDS011;66044;53.142;17.962;2023-08-24T00:35:16;5.50;;;2.00;;
77018;SDS011;66044;53.142;17.962;2023-08-24T00:37:43;5.40;;;1.90;;
77018;SDS011;66044;53.142;17.962;2023-08-24T00:40:10;6.50;;;1.80;;
77018;SDS011;66044;53.142;17.962;2023-08-24T00:42:37;6.50;;;1.70;;
77018;SDS011;66044;53.142;17.962;2023-08-24T00:45:05;6.00;;;1.70;;
77018;SDS011;66044;53.142;17.962;2023-08-24T00:47:33;6.50;;;1.80;;
77018;SDS011;66044;53.142;17.962;2023-08-24T00:50:00;12.30;;;1.90;;
77018;SDS011;66044;53.142;17.962;2023-08-24T00:52:27;5.90;;;1.90;;
77018;SDS011;66044;53.142;17.962;2023-08-24T00:54:58;5.30;;;1.60;;
77018;SDS011;66044;53.142;17.962;2023-08-24T00:57:27;5.50;;;1.50;;
77018;SDS011;66044;53.142;17.962;2023-08-24T00:59:55;7.40;;;1.90;;
77018;SDS011;66044;53.142;17.962;2023-08-24T01:02:22;5.50;;;1.50;;
77018;SDS011;66044;53.142;17.962;2023-08-24T01:04:48;9.20;;;1.80;;
77018;SDS011;66044;53.142;17.962;2023-08-24T01:07:15;6.30;;;1.60;;
77018;SDS011;66044;53.142;17.962;2023-08-24T01:09:43;7.20;;;1.70;;
77018;SDS011;66044;53.142;17.962;2023-08-24T01:12:16;5.20;;;1.60;;
77018;SDS011;66044;53.142;17.962;2023-08-24T01:17:45;5.30;;;1.40;;
77018;SDS011;66044;53.142;17.962;2023-08-24T01:20:16;5.90;;;1.40;;
77018;SDS011;66044;53.142;17.962;2023-08-24T01:22:47;7.30;;;1.80;;
77018;SDS011;66044;53.142;17.962;2023-08-24T01:25:29;6.30;;;1.60;;
77018;SDS011;66044;53.142;17.962;2023-08-24T01:28:03;5.40;;;1.50;;
77018;SDS011;66044;53.142;17.962;2023-08-24T01:30:32;4.60;;;1.50;;
77018;SDS011;66044;53.142;17.962;2023-08-24T01:33:04;6.10;;;1.50;;
77018;SDS011;66044;53.142;17.962;2023-08-24T01:35:31;5.50;;;1.70;;
77018;SDS011;66044;53.142;17.962;2023-08-24T01:37:58;6.30;;;2.10;;
77018;SDS011;66044;53.142;17.962;2023-08-24T01:43:05;4.50;;;1.60;;
77018;SDS011;66044;53.142;17.962;2023-08-24T01:45:33;5.90;;;1.60;;
77018;SDS011;66044;53.142;17.962;2023-08-24T01:48:00;5.20;;;1.70;;
77018;SDS011;66044;53.142;17.962;2023-08-24T01:50:29;7.90;;;2.00;;
77018;SDS011;66044;53.142;17.962;2023-08-24T01:52:57;6.00;;;1.40;;
77018;SDS011;66044;53.142;17.962;2023-08-24T01:55:23;6.80;;;2.10;;
77018;SDS011;66044;53.142;17.962;2023-08-24T01:57:50;4.80;;;1.50;;
77018;SDS011;66044;53.142;17.962;2023-08-24T02:00:17;8.30;;;1.70;;
77018;SDS011;66044;53.142;17.962;2023-08-24T02:02:44;7.50;;;1.80;;
77018;SDS011;66044;53.142;17.962;2023-08-24T02:05:10;6.20;;;1.80;;
77018;SDS011;66044;53.142;17.962;2023-08-24T02:07:38;6.70;;;1.70;;
77018;SDS011;66044;53.142;17.962;2023-08-24T02:10:07;9.40;;;2.00;;
77018;SDS011;66044;53.142;17.962;2023-08-24T02:12:33;6.20;;;2.10;;
77018;SDS011;66044;53.142;17.962;2023-08-24T02:15:00;7.30;;;2.40;;
77018;SDS011;66044;53.142;17.962;2023-08-24T02:17:26;7.30;;;2.80;;
77018;SDS011;66044;53.142;17.962;2023-08-24T02:19:53;7.60;;;3.20;;
77018;SDS011;66044;53.142;17.962;2023-08-24T02:22:19;8.10;;;3.40;;
77018;SDS011;66044;53.142;17.962;2023-08-24T02:24:46;8.60;;;3.80;;
77018;SDS011;66044;53.142;17.962;2023-08-24T02:27:12;7.90;;;3.50;;
77018;SDS011;66044;53.142;17.962;2023-08-24T02:29:39;9.70;;;3.30;;
77018;SDS011;66044;53.142;17.962;2023-08-24T02:32:05;8.60;;;3.40;;
77018;SDS011;66044;53.142;17.962;2023-08-24T02:34:31;7.00;;;3.10;;
77018;SDS011;66044;53.142;17.962;2023-08-24T02:36:58;9.90;;;3.30;;
77018;SDS011;66044;53.142;17.962;2023-08-24T02:39:24;11.20;;;3.50;;
77018;SDS011;66044;53.142;17.962;2023-08-24T02:41:51;7.50;;;3.00;;
77018;SDS011;66044;53.142;17.962;2023-08-24T02:44:18;8.20;;;2.90;;
77018;SDS011;66044;53.142;17.962;2023-08-24T02:46:44;8.10;;;3.00;;
77018;SDS011;66044;53.142;17.962;2023-08-24T02:49:11;8.00;;;3.10;;
77018;SDS011;66044;53.142;17.962;2023-08-24T02:51:38;10.40;;;3.70;;
77018;SDS011;66044;53.142;17.962;2023-08-24T02:54:05;7.80;;;3.00;;
77018;SDS011;66044;53.142;17.962;2023-08-24T02:56:31;7.20;;;2.40;;
77018;SDS011;66044;53.142;17.962;2023-08-24T02:58:57;9.10;;;3.00;;
77018;SDS011;66044;53.142;17.962;2023-08-24T03:01:24;8.20;;;2.60;;
77018;SDS011;66044;53.142;17.962;2023-08-24T03:03:50;6.40;;;2.40;;
77018;SDS011;66044;53.142;17.962;2023-08-24T03:06:17;8.40;;;2.60;;
77018;SDS011;66044;53.142;17.962;2023-08-24T03:08:43;6.60;;;2.50;;
77018;SDS011;66044;53.142;17.962;2023-08-24T03:11:10;7.70;;;2.40;;
77018;SDS011;66044;53.142;17.962;2023-08-24T03:13:37;8.60;;;2.70;;
77018;SDS011;66044;53.142;17.962;2023-08-24T03:16:05;6.20;;;2.40;;
77018;SDS011;66044;53.142;17.962;2023-08-24T03:18:32;6.60;;;2.40;;
77018;SDS011;66044;53.142;17.962;2023-08-24T03:20:58;6.50;;;2.30;;
77018;SDS011;66044;53.142;17.962;2023-08-24T03:23:25;5.80;;;1.90;;
77018;SDS011;66044;53.142;17.962;2023-08-24T03:25:51;8.60;;;2.30;;
77018;SDS011;66044;53.142;17.962;2023-08-24T03:28:18;6.90;;;2.30;;
77018;SDS011;66044;53.142;17.962;2023-08-24T03:30:46;5.70;;;2.00;;
77018;SDS011;66044;53.142;17.962;2023-08-24T03:33:14;6.30;;;2.10;;
77018;SDS011;66044;53.142;17.962;2023-08-24T03:35:41;7.00;;;2.30;;
77018;SDS011;66044;53.142;17.962;2023-08-24T03:38:10;6.00;;;2.10;;
77018;SDS011;66044;53.142;17.962;2023-08-24T03:40:36;8.00;;;2.50;;
77018;SDS011;66044;53.142;17.962;2023-08-24T03:43:03;7.10;;;2.00;;
77018;SDS011;66044;53.142;17.962;2023-08-24T03:45:29;6.90;;;2.00;;
77018;SDS011;66044;53.142;17.962;2023-08-24T03:47:56;6.10;;;2.20;;
77018;SDS011;66044;53.142;17.962;2023-08-24T03:50:22;6.50;;;2.20;;
77018;SDS011;66044;53.142;17.962;2023-08-24T03:52:49;6.70;;;2.30;;
77018;SDS011;66044;53.142;17.962;2023-08-24T03:55:17;6.20;;;2.20;;
77018;SDS011;66044;53.142;17.962;2023-08-24T03:57:43;6.30;;;2.30;;
77018;SDS011;66044;53.142;17.962;2023-08-24T04:00:10;7.20;;;2.00;;
77018;SDS011;66044;53.142;17.962;2023-08-24T04:02:38;5.70;;;2.10;;
77018;SDS011;66044;53.142;17.962;2023-08-24T04:05:05;5.50;;;1.90;;
77018;SDS011;66044;53.142;17.962;2023-08-24T04:07:31;6.50;;;2.20;;
77018;SDS011;66044;53.142;17.962;2023-08-24T04:09:59;7.80;;;2.10;;
77018;SDS011;66044;53.142;17.962;2023-08-24T04:12:25;8.10;;;2.00;;
77018;SDS011;66044;53.142;17.962;2023-08-24T04:14:52;6.10;;;2.40;;
77018;SDS011;66044;53.142;17.962;2023-08-24T04:17:18;7.60;;;2.30;;
77018;SDS011;66044;53.142;17.962;2023-08-24T04:19:45;6.80;;;2.30;;
77018;SDS011;66044;53.142;17.962;2023-08-24T04:22:11;7.50;;;2.90;;
77018;SDS011;66044;53.142;17.962;2023-08-24T04:24:38;6.90;;;2.50;;
77018;SDS011;66044;53.142;17.962;2023-08-24T04:27:04;7.50;;;2.90;;
77018;SDS011;66044;53.142;17.962;2023-08-24T04:29:31;7.90;;;3.10;;
77018;SDS011;66044;53.142;17.962;2023-08-24T04:31:57;7.20;;;2.70;;
77018;SDS011;66044;53.142;17.962;2023-08-24T04:34:23;6.80;;;2.70;;
77018;SDS011;66044;53.142;17.962;2023-08-24T04:36:50;7.50;;;2.70;;
77018;SDS011;66044;53.142;17.962;2023-08-24T04:39:16;6.90;;;2.80;;
77018;SDS011;66044;53.142;17.962;2023-08-24T04:41:44;8.40;;;2.50;;
77018;SDS011;66044;53.142;17.962;2023-08-24T04:44:11;9.50;;;2.60;;
77018;SDS011;66044;53.142;17.962;2023-08-24T04:46:37;6.90;;;2.70;;
77018;SDS011;66044;53.142;17.962;2023-08-24T04:49:04;7.40;;;2.40;;
77018;SDS011;66044;53.142;17.962;2023-08-24T04:51:30;6.00;;;2.20;;
77018;SDS011;66044;53.142;17.962;2023-08-24T04:53:57;7.10;;;2.20;;
77018;SDS011;66044;53.142;17.962;2023-08-24T04:56:24;7.90;;;2.30;;
77018;SDS011;66044;53.142;17.962;2023-08-24T04:58:56;5.10;;;2.00;;
77018;SDS011;66044;53.142;17.962;2023-08-24T05:01:24;7.30;;;2.10;;
77018;SDS011;66044;53.142;17.962;2023-08-24T05:03:53;7.30;;;2.30;;
77018;SDS011;66044;53.142;17.962;2023-08-24T05:06:20;8.70;;;2.30;;
77018;SDS011;66044;53.142;17.962;2023-08-24T05:08:47;5.50;;;1.70;;
77018;SDS011;66044;53.142;17.962;2023-08-24T05:11:16;8.60;;;2.40;;
77018;SDS011;66044;53.142;17.962;2023-08-24T05:13:44;7.70;;;2.30;;
77018;SDS011;66044;53.142;17.962;2023-08-24T05:16:11;6.80;;;2.00;;
77018;SDS011;66044;53.142;17.962;2023-08-24T05:18:39;7.80;;;2.70;;
77018;SDS011;66044;53.142;17.962;2023-08-24T05:21:06;8.10;;;2.60;;
77018;SDS011;66044;53.142;17.962;2023-08-24T05:23:33;9.70;;;2.70;;
77018;SDS011;66044;53.142;17.962;2023-08-24T05:26:01;8.60;;;2.90;;
77018;SDS011;66044;53.142;17.962;2023-08-24T05:28:29;9.60;;;3.50;;
77018;SDS011;66044;53.142;17.962;2023-08-24T05:30:57;8.20;;;2.80;;
77018;SDS011;66044;53.142;17.962;2023-08-24T05:33:26;7.80;;;2.10;;
77018;SDS011;66044;53.142;17.962;2023-08-24T05:35:53;6.40;;;2.30;;
77018;SDS011;66044;53.142;17.962;2023-08-24T05:38:19;7.60;;;2.30;;
77018;SDS011;66044;53.142;17.962;2023-08-24T05:40:46;8.40;;;2.60;;
77018;SDS011;66044;53.142;17.962;2023-08-24T05:43:13;6.00;;;2.50;;
77018;SDS011;66044;53.142;17.962;2023-08-24T05:45:40;8.70;;;2.70;;
77018;SDS011;66044;53.142;17.962;2023-08-24T05:48:10;7.40;;;2.30;;
77018;SDS011;66044;53.142;17.962;2023-08-24T05:50:37;5.90;;;2.00;;
77018;SDS011;66044;53.142;17.962;2023-08-24T05:53:08;7.00;;;2.30;;
77018;SDS011;66044;53.142;17.962;2023-08-24T05:55:34;7.60;;;2.40;;
77018;SDS011;66044;53.142;17.962;2023-08-24T05:58:01;7.00;;;2.20;;
77018;SDS011;66044;53.142;17.962;2023-08-24T06:00:27;6.00;;;2.20;;
77018;SDS011;66044;53.142;17.962;2023-08-24T06:02:55;6.20;;;2.50;;
77018;SDS011;66044;53.142;17.962;2023-08-24T06:05:21;6.60;;;2.40;;
77018;SDS011;66044;53.142;17.962;2023-08-24T06:07:49;7.00;;;2.60;;
77018;SDS011;66044;53.142;17.962;2023-08-24T06:10:15;6.40;;;2.10;;
77018;SDS011;66044;53.142;17.962;2023-08-24T06:12:42;7.90;;;2.60;;
77018;SDS011;66044;53.142;17.962;2023-08-24T06:15:09;7.30;;;2.40;;
77018;SDS011;66044;53.142;17.962;2023-08-24T06:17:39;7.10;;;2.30;;
77018;SDS011;66044;53.142;17.962;2023-08-24T06:20:05;5.50;;;1.90;;
77018;SDS011;66044;53.142;17.962;2023-08-24T06:22:36;6.40;;;2.00;;
77018;SDS011;66044;53.142;17.962;2023-08-24T06:25:03;6.80;;;1.70;;
77018;SDS011;66044;53.142;17.962;2023-08-24T06:27:31;8.40;;;2.50;;
77018;SDS011;66044;53.142;17.962;2023-08-24T06:29:58;6.40;;;1.70;;
77018;SDS011;66044;53.142;17.962;2023-08-24T06:32:24;6.50;;;2.00;;
77018;SDS011;66044;53.142;17.962;2023-08-24T06:34:50;6.20;;;2.00;;
77018;SDS011;66044;53.142;17.962;2023-08-24T06:37:17;5.10;;;1.70;;
77018;SDS011;66044;53.142;17.962;2023-08-24T06:39:44;7.00;;;1.90;;
77018;SDS011;66044;53.142;17.962;2023-08-24T06:42:10;6.40;;;1.90;;
77018;SDS011;66044;53.142;17.962;2023-08-24T06:44:37;5.90;;;1.70;;
77018;SDS011;66044;53.142;17.962;2023-08-24T06:47:03;8.20;;;2.50;;
77018;SDS011;66044;53.142;17.962;2023-08-24T06:49:30;6.10;;;2.50;;
77018;SDS011;66044;53.142;17.962;2023-08-24T06:51:56;6.40;;;2.20;;
77018;SDS011;66044;53.142;17.962;2023-08-24T06:54:23;7.80;;;2.20;;
77018;SDS011;66044;53.142;17.962;2023-08-24T06:56:49;6.00;;;2.10;;
77018;SDS011;66044;53.142;17.962;2023-08-24T06:59:16;7.50;;;2.50;;
77018;SDS011;66044;53.142;17.962;2023-08-24T07:01:42;8.80;;;2.10;;
77018;SDS011;66044;53.142;17.962;2023-08-24T07:04:09;6.00;;;1.60;;
77018;SDS011;66044;53.142;17.962;2023-08-24T07:06:35;6.90;;;1.40;;
77018;SDS011;66044;53.142;17.962;2023-08-24T07:09:02;5.80;;;1.80;;
77018;SDS011;66044;53.142;17.962;2023-08-24T07:11:32;6.00;;;1.50;;
77018;SDS011;66044;53.142;17.962;2023-08-24T07:13:59;4.00;;;1.10;;
77018;SDS011;66044;53.142;17.962;2023-08-24T07:16:25;4.30;;;0.90;;
77018;SDS011;66044;53.142;17.962;2023-08-24T07:18:52;6.40;;;0.80;;
77018;SDS011;66044;53.142;17.962;2023-08-24T07:21:18;11.00;;;1.20;;
77018;SDS011;66044;53.142;17.962;2023-08-24T07:23:45;4.60;;;1.00;;
77018;SDS011;66044;53.142;17.962;2023-08-24T07:26:12;3.90;;;0.90;;
77018;SDS011;66044;53.142;17.962;2023-08-24T07:28:38;4.60;;;1.20;;
77018;SDS011;66044;53.142;17.962;2023-08-24T07:31:08;4.30;;;1.00;;
77018;SDS011;66044;53.142;17.962;2023-08-24T07:33:39;4.10;;;0.90;;
77018;SDS011;66044;53.142;17.962;2023-08-24T07:36:07;3.00;;;0.70;;
77018;SDS011;66044;53.142;17.962;2023-08-24T07:38:33;3.80;;;0.70;;
77018;SDS011;66044;53.142;17.962;2023-08-24T07:41:00;4.50;;;0.70;;
77018;SDS011;66044;53.142;17.962;2023-08-24T07:43:27;5.60;;;0.90;;
77018;SDS011;66044;53.142;17.962;2023-08-24T07:45:53;4.60;;;0.80;;
77018;SDS011;66044;53.142;17.962;2023-08-24T07:48:21;2.80;;;0.60;;
77018;SDS011;66044;53.142;17.962;2023-08-24T07:50:47;5.10;;;0.80;;
77018;SDS011;66044;53.142;17.962;2023-08-24T07:53:14;2.70;;;0.50;;
77018;SDS011;66044;53.142;17.962;2023-08-24T07:55:41;3.00;;;0.50;;
77018;SDS011;66044;53.142;17.962;2023-08-24T07:58:09;4.10;;;0.60;;
77018;SDS011;66044;53.142;17.962;2023-08-24T08:00:35;2.90;;;0.50;;
77018;SDS011;66044;53.142;17.962;2023-08-24T08:03:02;4.50;;;0.70;;
77018;SDS011;66044;53.142;17.962;2023-08-24T08:05:28;2.10;;;0.50;;
77018;SDS011;66044;53.142;17.962;2023-08-24T08:07:55;2.90;;;0.60;;
77018;SDS011;66044;53.142;17.962;2023-08-24T08:10:22;3.30;;;0.50;;
77018;SDS011;66044;53.142;17.962;2023-08-24T08:12:48;3.10;;;0.50;;
77018;SDS011;66044;53.142;17.962;2023-08-24T08:15:15;3.10;;;0.40;;
77018;SDS011;66044;53.142;17.962;2023-08-24T08:17:41;2.20;;;0.30;;
77018;SDS011;66044;53.142;17.962;2023-08-24T08:20:09;3.20;;;0.50;;
77018;SDS011;66044;53.142;17.962;2023-08-24T08:22:38;2.10;;;0.30;;
77018;SDS011;66044;53.142;17.962;2023-08-24T08:25:05;3.10;;;0.40;;
77018;SDS011;66044;53.142;17.962;2023-08-24T08:27:32;2.80;;;0.50;;
77018;SDS011;66044;53.142;17.962;2023-08-24T08:29:59;2.50;;;0.50;;
77018;SDS011;66044;53.142;17.962;2023-08-24T08:32:26;2.90;;;0.50;;
77018;SDS011;66044;53.142;17.962;2023-08-24T08:34:54;3.40;;;0.60;;
77018;SDS011;66044;53.142;17.962;2023-08-24T08:37:23;5.20;;;0.80;;
77018;SDS011;66044;53.142;17.962;2023-08-24T08:39:49;3.90;;;0.80;;
77018;SDS011;66044;53.142;17.962;2023-08-24T08:42:16;5.40;;;0.80;;
77018;SDS011;66044;53.142;17.962;2023-08-24T08:44:45;4.30;;;0.70;;
77018;SDS011;66044;53.142;17.962;2023-08-24T08:47:13;4.20;;;0.50;;
77018;SDS011;66044;53.142;17.962;2023-08-24T08:49:41;4.00;;;0.60;;
77018;SDS011;66044;53.142;17.962;2023-08-24T08:52:09;5.40;;;0.80;;
77018;SDS011;66044;53.142;17.962;2023-08-24T08:54:36;3.80;;;0.80;;
77018;SDS011;66044;53.142;17.962;2023-08-24T08:57:03;3.50;;;0.60;;
77018;SDS011;66044;53.142;17.962;2023-08-24T08:59:30;3.40;;;0.70;;
77018;SDS011;66044;53.142;17.962;2023-08-24T09:01:57;5.20;;;1.10;;
77018;SDS011;66044;53.142;17.962;2023-08-24T09:04:24;3.30;;;0.60;;
77018;SDS011;66044;53.142;17.962;2023-08-24T09:06:51;4.20;;;0.80;;
77018;SDS011;66044;53.142;17.962;2023-08-24T09:09:17;4.60;;;1.00;;
77018;SDS011;66044;53.142;17.962;2023-08-24T09:11:44;2.80;;;0.70;;
77018;SDS011;66044;53.142;17.962;2023-08-24T09:14:13;6.00;;;0.70;;
77018;SDS011;66044;53.142;17.962;2023-08-24T09:16:43;5.10;;;0.60;;
77018;SDS011;66044;53.142;17.962;2023-08-24T09:19:13;4.40;;;0.70;;
77018;SDS011;66044;53.142;17.962;2023-08-24T09:21:39;4.10;;;0.60;;
77018;SDS011;66044;53.142;17.962;2023-08-24T09:24:07;4.30;;;0.70;;
77018;SDS011;66044;53.142;17.962;2023-08-24T09:26:36;2.80;;;0.60;;
77018;SDS011;66044;53.142;17.962;2023-08-24T09:29:15;3.30;;;0.60;;
77018;SDS011;66044;53.142;17.962;2023-08-24T09:31:42;4.00;;;0.70;;
77018;SDS011;66044;53.142;17.962;2023-08-24T09:34:12;5.10;;;0.90;;
77018;SDS011;66044;53.142;17.962;2023-08-24T09:36:39;3.90;;;0.70;;
77018;SDS011;66044;53.142;17.962;2023-08-24T09:39:05;6.20;;;0.60;;
77018;SDS011;66044;53.142;17.962;2023-08-24T09:41:38;4.10;;;0.60;;
77018;SDS011;66044;53.142;17.962;2023-08-24T09:44:12;4.00;;;0.60;;
77018;SDS011;66044;53.142;17.962;2023-08-24T09:46:39;3.10;;;0.40;;
77018;SDS011;66044;53.142;17.962;2023-08-24T09:49:13;4.30;;;0.50;;
77018;SDS011;66044;53.142;17.962;2023-08-24T09:51:39;3.80;;;0.70;;
77018;SDS011;66044;53.142;17.962;2023-08-24T09:54:08;3.80;;;0.60;;
77018;SDS011;66044;53.142;17.962;2023-08-24T09:56:37;4.70;;;0.80;;
77018;SDS011;66044;53.142;17.962;2023-08-24T09:59:17;3.90;;;0.60;;
77018;SDS011;66044;53.142;17.962;2023-08-24T10:01:51;2.60;;;0.60;;
77018;SDS011;66044;53.142;17.962;2023-08-24T10:04:22;4.10;;;0.70;;
77018;SDS011;66044;53.142;17.962;2023-08-24T10:06:51;4.00;;;0.60;;
77018;SDS011;66044;53.142;17.962;2023-08-24T10:09:22;4.90;;;0.60;;
77018;SDS011;66044;53.142;17.962;2023-08-24T10:11:58;4.80;;;0.60;;
77018;SDS011;66044;53.142;17.962;2023-08-24T10:14:31;4.00;;;0.70;;
77018;SDS011;66044;53.142;17.962;2023-08-24T10:17:08;4.40;;;0.60;;
77018;SDS011;66044;53.142;17.962;2023-08-24T10:19:36;4.50;;;0.70;;
77018;SDS011;66044;53.142;17.962;2023-08-24T10:22:03;4.90;;;0.60;;
77018;SDS011;66044;53.142;17.962;2023-08-24T10:24:31;3.10;;;0.60;;
77018;SDS011;66044;53.142;17.962;2023-08-24T10:26:58;3.00;;;0.70;;
77018;SDS011;66044;53.142;17.962;2023-08-24T10:29:26;4.90;;;0.50;;
77018;SDS011;66044;53.142;17.962;2023-08-24T10:31:54;4.20;;;0.80;;
77018;SDS011;66044;53.142;17.962;2023-08-24T10:34:22;4.20;;;0.60;;
77018;SDS011;66044;53.142;17.962;2023-08-24T10:36:49;3.20;;;0.50;;
77018;SDS011;66044;53.142;17.962;2023-08-24T10:39:17;3.20;;;0.60;;
77018;SDS011;66044;53.142;17.962;2023-08-24T10:41:50;4.40;;;0.90;;
77018;SDS011;66044;53.142;17.962;2023-08-24T10:44:25;2.80;;;0.50;;
77018;SDS011;66044;53.142;17.962;2023-08-24T10:55:22;4.00;;;0.50;;
77018;SDS011;66044;53.142;17.962;2023-08-24T10:57:56;3.70;;;0.70;;
77018;SDS011;66044;53.142;17.962;2023-08-24T11:00:28;4.10;;;0.70;;
77018;SDS011;66044;53.142;17.962;2023-08-24T11:02:56;3.60;;;0.60;;
77018;SDS011;66044;53.142;17.962;2023-08-24T11:05:24;4.90;;;0.90;;
77018;SDS011;66044;53.142;17.962;2023-08-24T11:08:00;2.20;;;0.50;;
77018;SDS011;66044;53.142;17.962;2023-08-24T11:10:31;4.00;;;0.80;;
77018;SDS011;66044;53.142;17.962;2023-08-24T11:13:13;3.90;;;0.60;;
77018;SDS011;66044;53.142;17.962;2023-08-24T11:15:41;3.80;;;0.80;;
77018;SDS011;66044;53.142;17.962;2023-08-24T11:18:12;4.00;;;0.70;;
77018;SDS011;66044;53.142;17.962;2023-08-24T11:20:42;3.70;;;0.70;;
77018;SDS011;66044;53.142;17.962;2023-08-24T11:23:10;4.60;;;0.80;;
77018;SDS011;66044;53.142;17.962;2023-08-24T11:25:37;3.40;;;0.80;;
77018;SDS011;66044;53.142;17.962;2023-08-24T11:28:04;4.10;;;1.00;;
77018;SDS011;66044;53.142;17.962;2023-08-24T11:30:31;6.20;;;1.10;;
77018;SDS011;66044;53.142;17.962;2023-08-24T11:32:59;4.90;;;1.00;;
77018;SDS011;66044;53.142;17.962;2023-08-24T11:35:27;6.20;;;1.00;;
77018;SDS011;66044;53.142;17.962;2023-08-24T11:37:54;3.60;;;0.80;;
77018;SDS011;66044;53.142;17.962;2023-08-24T11:40:22;4.10;;;0.80;;
77018;SDS011;66044;53.142;17.962;2023-08-24T11:42:53;4.70;;;0.80;;
77018;SDS011;66044;53.142;17.962;2023-08-24T11:45:21;5.30;;;0.80;;
77018;SDS011;66044;53.142;17.962;2023-08-24T11:47:49;4.30;;;0.70;;
77018;SDS011;66044;53.142;17.962;2023-08-24T11:50:17;3.30;;;0.70;;
77018;SDS011;66044;53.142;17.962;2023-08-24T11:52:43;3.40;;;0.70;;
77018;SDS011;66044;53.142;17.962;2023-08-24T11:55:10;3.80;;;0.80;;
77018;SDS011;66044;53.142;17.962;2023-08-24T11:57:38;3.10;;;0.80;;
77018;SDS011;66044;53.142;17.962;2023-08-24T12:00:05;4.20;;;0.80;;
77018;SDS011;66044;53.142;17.962;2023-08-24T12:02:32;4.30;;;0.80;;
77018;SDS011;66044;53.142;17.962;2023-08-24T12:05:00;4.60;;;0.90;;
77018;SDS011;66044;53.142;17.962;2023-08-24T12:07:27;3.00;;;0.70;;
77018;SDS011;66044;53.142;17.962;2023-08-24T12:09:54;5.20;;;0.90;;
77018;SDS011;66044;53.142;17.962;2023-08-24T12:12:21;3.40;;;0.80;;
77018;SDS011;66044;53.142;17.962;2023-08-24T12:14:49;4.10;;;0.80;;
77018;SDS011;66044;53.142;17.962;2023-08-24T12:17:16;3.40;;;0.80;;
77018;SDS011;66044;53.142;17.962;2023-08-24T12:19:44;5.50;;;1.00;;
77018;SDS011;66044;53.142;17.962;2023-08-24T12:22:12;7.30;;;1.20;;
77018;SDS011;66044;53.142;17.962;2023-08-24T12:24:43;4.70;;;0.70;;
77018;SDS011;66044;53.142;17.962;2023-08-24T12:27:25;4.80;;;0.80;;
77018;SDS011;66044;53.142;17.962;2023-08-24T12:29:53;5.80;;;0.90;;
77018;SDS011;66044;53.142;17.962;2023-08-24T12:32:20;3.80;;;1.00;;
77018;SDS011;66044;53.142;17.962;2023-08-24T12:34:49;4.20;;;0.80;;
77018;SDS011;66044;53.142;17.962;2023-08-24T12:37:18;4.20;;;0.80;;
77018;SDS011;66044;53.142;17.962;2023-08-24T12:39:45;4.90;;;0.90;;
77018;SDS011;66044;53.142;17.962;2023-08-24T12:42:12;5.50;;;1.20;;
77018;SDS011;66044;53.142;17.962;2023-08-24T12:44:38;4.00;;;0.80;;
77018;SDS011;66044;53.142;17.962;2023-08-24T12:47:05;4.50;;;1.00;;
77018;SDS011;66044;53.142;17.962;2023-08-24T12:49:31;3.70;;;0.90;;
77018;SDS011;66044;53.142;17.962;2023-08-24T12:51:58;3.90;;;0.80;;
77018;SDS011;66044;53.142;17.962;2023-08-24T12:54:24;6.40;;;0.90;;
77018;SDS011;66044;53.142;17.962;2023-08-24T12:56:53;4.30;;;0.90;;
77018;SDS011;66044;53.142;17.962;2023-08-24T12:59:19;3.60;;;0.90;;
77018;SDS011;66044;53.142;17.962;2023-08-24T13:01:45;4.80;;;0.80;;
77018;SDS011;66044;53.142;17.962;2023-08-24T13:04:13;5.10;;;1.00;;
77018;SDS011;66044;53.142;17.962;2023-08-24T13:06:39;6.10;;;1.00;;
77018;SDS011;66044;53.142;17.962;2023-08-24T13:09:06;3.60;;;0.80;;
77018;SDS011;66044;53.142;17.962;2023-08-24T13:11:32;3.90;;;0.70;;
77018;SDS011;66044;53.142;17.962;2023-08-24T13:13:59;5.00;;;0.90;;
77018;SDS011;66044;53.142;17.962;2023-08-24T13:16:25;4.10;;;0.90;;
77018;SDS011;66044;53.142;17.962;2023-08-24T13:18:54;5.10;;;0.90;;
77018;SDS011;66044;53.142;17.962;2023-08-24T13:21:20;4.20;;;0.80;;
77018;SDS011;66044;53.142;17.962;2023-08-24T13:23:46;4.10;;;0.90;;
77018;SDS011;66044;53.142;17.962;2023-08-24T13:26:17;4.40;;;0.80;;
77018;SDS011;66044;53.142;17.962;2023-08-24T13:28:49;4.00;;;0.70;;
77018;SDS011;66044;53.142;17.962;2023-08-24T13:31:16;3.40;;;0.80;;
77018;SDS011;66044;53.142;17.962;2023-08-24T13:33:44;3.40;;;0.70;;
77018;SDS011;66044;53.142;17.962;2023-08-24T13:36:11;3.50;;;0.80;;
77018;SDS011;66044;53.142;17.962;2023-08-24T13:38:38;4.70;;;0.90;;
77018;SDS011;66044;53.142;17.962;2023-08-24T13:41:04;6.20;;;0.90;;
77018;SDS011;66044;53.142;17.962;2023-08-24T13:43:31;4.00;;;0.90;;
77018;SDS011;66044;53.142;17.962;2023-08-24T13:45:57;4.50;;;1.00;;
77018;SDS011;66044;53.142;17.962;2023-08-24T13:48:24;3.20;;;0.90;;
77018;SDS011;66044;53.142;17.962;2023-08-24T13:50:51;3.50;;;0.70;;
77018;SDS011;66044;53.142;17.962;2023-08-24T13:53:18;4.20;;;0.80;;
77018;SDS011;66044;53.142;17.962;2023-08-24T13:55:45;3.70;;;0.90;;
77018;SDS011;66044;53.142;17.962;2023-08-24T13:58:13;4.40;;;0.80;;
77018;SDS011;66044;53.142;17.962;2023-08-24T14:00:41;3.40;;;0.90;;
77018;SDS011;66044;53.142;17.962;2023-08-24T14:03:08;3.50;;;0.80;;
77018;SDS011;66044;53.142;17.962;2023-08-24T14:05:39;3.40;;;0.70;;
77018;SDS011;66044;53.142;17.962;2023-08-24T14:08:06;4.00;;;1.10;;
77018;SDS011;66044;53.142;17.962;2023-08-24T14:10:35;6.90;;;1.20;;
77018;SDS011;66044;53.142;17.962;2023-08-24T14:13:01;3.80;;;0.80;;
77018;SDS011;66044;53.142;17.962;2023-08-24T14:15:28;4.80;;;1.00;;
77018;SDS011;66044;53.142;17.962;2023-08-24T14:17:54;3.90;;;0.80;;
77018;SDS011;66044;53.142;17.962;2023-08-24T14:20:21;4.60;;;1.10;;
77018;SDS011;66044;53.142;17.962;2023-08-24T14:22:48;4.90;;;0.90;;
77018;SDS011;66044;53.142;17.962;2023-08-24T14:25:14;3.90;;;0.80;;
77018;SDS011;66044;53.142;17.962;2023-08-24T14:27:42;6.90;;;1.00;;
77018;SDS011;66044;53.142;17.962;2023-08-24T14:30:09;6.60;;;1.10;;
77018;SDS011;66044;53.142;17.962;2023-08-24T14:32:36;3.90;;;0.80;;
77018;SDS011;66044;53.142;17.962;2023-08-24T14:35:04;3.60;;;0.80;;
77018;SDS011;66044;53.142;17.962;2023-08-24T14:37:31;3.70;;;0.70;;
77018;SDS011;66044;53.142;17.962;2023-08-24T14:39:59;3.80;;;1.00;;
77018;SDS011;66044;53.142;17.962;2023-08-24T14:42:26;4.20;;;0.80;;
77018;SDS011;66044;53.142;17.962;2023-08-24T14:44:52;4.30;;;1.00;;
77018;SDS011;66044;53.142;17.962;2023-08-24T14:47:19;4.30;;;1.10;;
77018;SDS011;66044;53.142;17.962;2023-08-24T14:49:46;3.80;;;0.90;;